sensor_id;sensor_type;location;lat;lon;timestamp;noise_LAeq;noise_LA_min;noise_LA_max;noise_LA01;noise_LA95
45109;Laerm;30447;48.742;8.972;2023-03-01T00:01:07;39.31;34.69;45.33;;
45109;Laerm;30447;48.742;8.972;2023-03-01T00:03:34;38.85;35.04;42.59;;
45109;Laerm;30447;48.742;8.972;2023-03-01T00:06:02;38.42;34.31;41.06;;
45109;Laerm;30447;48.742;8.972;2023-03-01T00:08:29;38.56;34.69;40.98;;
45109;Laerm;30447;48.742;8.972;2023-03-01T00:13:33;38.64;34.31;41.46;;
45109;Laerm;30447;48.742;8.972;2023-03-01T00:16:06;38.25;34.31;41.30;;
45109;Laerm;30447;48.742;8.972;2023-03-01T00:18:32;38.56;34.69;41.30;;
45109;Laerm;30447;48.742;8.972;2023-03-01T00:20:59;39.12;34.69;44.73;;
45109;Laerm;30447;48.742;8.972;2023-03-01T00:23:26;39.46;34.69;44.31;;
45109;Laerm;30447;48.742;8.972;2023-03-01T00:25:53;39.14;35.36;45.94;;
45109;Laerm;30447;48.742;8.972;2023-03-01T00:28:20;38.97;33.44;62.95;;
45109;Laerm;30447;48.742;8.972;2023-03-01T00:30:47;38.19;33.44;44.43;;
45109;Laerm;30447;48.742;8.972;2023-03-01T00:33:13;38.24;34.69;41.22;;
45109;Laerm;30447;48.742;8.972;2023-03-01T00:35:40;38.58;34.31;42.76;;
45109;Laerm;30447;48.742;8.972;2023-03-01T00:38:06;38.71;34.69;41.68;;
45109;Laerm;30447;48.742;8.972;2023-03-01T00:40:35;39.76;35.94;44.54;;
45109;Laerm;30447;48.742;8.972;2023-03-01T00:43:03;38.87;34.69;41.38;;
45109;Laerm;30447;48.742;8.972;2023-03-01T00:45:30;38.19;32.93;41.14;;
45109;Laerm;30447;48.742;8.972;2023-03-01T00:47:59;38.52;34.31;41.06;;
45109;Laerm;30447;48.742;8.972;2023-03-01T00:50:26;40.60;34.69;44.76;;
45109;Laerm;30447;48.742;8.972;2023-03-01T00:52:54;39.64;34.69;42.88;;
45109;Laerm;30447;48.742;8.972;2023-03-01T00:55:21;38.46;33.90;41.06;;
45109;Laerm;30447;48.742;8.972;2023-03-01T00:57:48;38.28;35.04;40.62;;
45109;Laerm;30447;48.742;8.972;2023-03-01T01:00:15;38.62;34.31;41.61;;
45109;Laerm;30447;48.742;8.972;2023-03-01T01:02:41;39.11;34.69;41.61;;
45109;Laerm;30447;48.742;8.972;2023-03-01T01:05:09;38.29;34.31;41.53;;
45109;Laerm;30447;48.742;8.972;2023-03-01T01:07:36;38.21;34.31;40.80;;
45109;Laerm;30447;48.742;8.972;2023-03-01T01:10:03;38.23;33.90;40.62;;
45109;Laerm;30447;48.742;8.972;2023-03-01T01:12:29;38.74;35.04;41.46;;
45109;Laerm;30447;48.742;8.972;2023-03-01T01:14:56;38.80;35.04;41.30;;
45109;Laerm;30447;48.742;8.972;2023-03-01T01:17:22;38.54;34.69;41.82;;
45109;Laerm;30447;48.742;8.972;2023-03-01T01:19:49;38.55;35.04;41.22;;
45109;Laerm;30447;48.742;8.972;2023-03-01T01:22:15;38.83;35.04;41.68;;
45109;Laerm;30447;48.742;8.972;2023-03-01T01:24:42;39.19;35.36;42.53;;
45109;Laerm;30447;48.742;8.972;2023-03-01T01:27:08;39.00;34.31;42.71;;
45109;Laerm;30447;48.742;8.972;2023-03-01T01:29:35;38.95;34.31;42.09;;
45109;Laerm;30447;48.742;8.972;2023-03-01T01:32:01;38.80;35.36;41.89;;
45109;Laerm;30447;48.742;8.972;2023-03-01T01:34:28;38.86;35.36;41.30;;
45109;Laerm;30447;48.742;8.972;2023-03-01T01:36:54;38.95;35.04;44.58;;
45109;Laerm;30447;48.742;8.972;2023-03-01T01:39:22;38.87;35.66;41.30;;
45109;Laerm;30447;48.742;8.972;2023-03-01T01:41:49;39.06;35.04;41.96;;
45109;Laerm;30447;48.742;8.972;2023-03-01T01:44:21;39.21;34.31;42.22;;
45109;Laerm;30447;48.742;8.972;2023-03-01T01:46:57;38.98;35.36;41.53;;
45109;Laerm;30447;48.742;8.972;2023-03-01T01:49:33;38.71;35.04;40.98;;
45109;Laerm;30447;48.742;8.972;2023-03-01T01:54:58;39.09;35.59;41.53;;
45109;Laerm;30447;48.742;8.972;2023-03-01T01:57:52;38.98;35.66;41.30;;
45109;Laerm;30447;48.742;8.972;2023-03-01T02:00:22;38.81;35.04;41.33;;
45109;Laerm;30447;48.742;8.972;2023-03-01T02:02:57;38.59;34.69;41.30;;
45109;Laerm;30447;48.742;8.972;2023-03-01T02:05:36;39.29;35.04;42.29;;
45109;Laerm;30447;48.742;8.972;2023-03-01T02:08:05;39.60;36.45;43.42;;
45109;Laerm;30447;48.742;8.972;2023-03-01T02:10:34;39.07;35.94;42.82;;
45109;Laerm;30447;48.742;8.972;2023-03-01T02:13:01;39.03;35.36;46.59;;
45109;Laerm;30447;48.742;8.972;2023-03-01T02:15:33;38.92;35.04;41.82;;
45109;Laerm;30447;48.742;8.972;2023-03-01T02:18:01;38.76;35.04;41.75;;
45109;Laerm;30447;48.742;8.972;2023-03-01T02:21:05;38.83;34.69;42.98;;
45109;Laerm;30447;48.742;8.972;2023-03-01T02:23:35;39.02;35.36;43.81;;
45109;Laerm;30447;48.742;8.972;2023-03-01T02:26:11;38.92;34.69;42.16;;
45109;Laerm;30447;48.742;8.972;2023-03-01T02:28:42;39.51;35.66;43.68;;
45109;Laerm;30447;48.742;8.972;2023-03-01T02:31:16;39.20;35.66;43.04;;
45109;Laerm;30447;48.742;8.972;2023-03-01T02:34:03;38.97;34.31;42.29;;
45109;Laerm;30447;48.742;8.972;2023-03-01T02:36:37;39.11;35.66;41.75;;
45109;Laerm;30447;48.742;8.972;2023-03-01T02:39:07;39.47;35.36;43.14;;
45109;Laerm;30447;48.742;8.972;2023-03-01T02:41:43;39.08;35.36;42.09;;
45109;Laerm;30447;48.742;8.972;2023-03-01T02:44:10;39.04;35.04;41.89;;
45109;Laerm;30447;48.742;8.972;2023-03-01T02:46:52;39.22;34.69;41.82;;
45109;Laerm;30447;48.742;8.972;2023-03-01T02:49:22;39.47;35.04;41.96;;
45109;Laerm;30447;48.742;8.972;2023-03-01T02:52:05;39.46;35.04;42.41;;
45109;Laerm;30447;48.742;8.972;2023-03-01T02:57:15;38.93;35.36;42.74;;
45109;Laerm;30447;48.742;8.972;2023-03-01T02:59:43;38.89;34.69;43.49;;
45109;Laerm;30447;48.742;8.972;2023-03-01T03:02:25;38.87;35.66;41.82;;
45109;Laerm;30447;48.742;8.972;2023-03-01T03:05:15;38.57;35.04;41.06;;
45109;Laerm;30447;48.742;8.972;2023-03-01T03:07:44;38.70;35.04;41.46;;
45109;Laerm;30447;48.742;8.972;2023-03-01T03:10:23;38.88;35.04;42.03;;
45109;Laerm;30447;48.742;8.972;2023-03-01T03:12:52;38.68;34.31;41.53;;
45109;Laerm;30447;48.742;8.972;2023-03-01T03:15:20;38.18;33.90;41.26;;
45109;Laerm;30447;48.742;8.972;2023-03-01T03:17:48;38.46;34.31;41.38;;
45109;Laerm;30447;48.742;8.972;2023-03-01T03:20:18;38.58;35.04;41.46;;
45109;Laerm;30447;48.742;8.972;2023-03-01T03:22:48;38.81;34.69;41.82;;
45109;Laerm;30447;48.742;8.972;2023-03-01T03:25:16;38.80;35.04;41.30;;
45109;Laerm;30447;48.742;8.972;2023-03-01T03:27:44;38.91;34.69;41.89;;
45109;Laerm;30447;48.742;8.972;2023-03-01T03:30:15;40.52;35.36;44.65;;
45109;Laerm;30447;48.742;8.972;2023-03-01T03:32:44;40.33;35.36;45.14;;
45109;Laerm;30447;48.742;8.972;2023-03-01T03:35:28;40.00;35.66;43.77;;
45109;Laerm;30447;48.742;8.972;2023-03-01T03:37:58;40.46;35.94;46.69;;
45109;Laerm;30447;48.742;8.972;2023-03-01T03:40:34;40.62;35.94;45.30;;
45109;Laerm;30447;48.742;8.972;2023-03-01T03:43:09;39.36;35.36;43.14;;
45109;Laerm;30447;48.742;8.972;2023-03-01T03:45:36;39.23;35.36;41.96;;
45109;Laerm;30447;48.742;8.972;2023-03-01T03:48:05;40.31;36.69;43.54;;
45109;Laerm;30447;48.742;8.972;2023-03-01T03:50:33;39.76;36.45;42.82;;
45109;Laerm;30447;48.742;8.972;2023-03-01T03:53:00;39.61;36.20;45.17;;
45109;Laerm;30447;48.742;8.972;2023-03-01T03:55:27;39.96;35.66;61.28;;
45109;Laerm;30447;48.742;8.972;2023-03-01T03:57:58;39.53;35.66;42.29;;
45109;Laerm;30447;48.742;8.972;2023-03-01T04:00:28;39.51;36.20;41.82;;
45109;Laerm;30447;48.742;8.972;2023-03-01T04:02:55;39.31;36.20;41.68;;
45109;Laerm;30447;48.742;8.972;2023-03-01T04:05:23;39.44;36.20;42.88;;
45109;Laerm;30447;48.742;8.972;2023-03-01T04:07:50;39.98;36.69;42.22;;
45109;Laerm;30447;48.742;8.972;2023-03-01T04:10:29;40.01;36.34;42.53;;
45109;Laerm;30447;48.742;8.972;2023-03-01T04:12:56;40.55;37.12;43.49;;
45109;Laerm;30447;48.742;8.972;2023-03-01T04:15:24;40.35;37.12;43.63;;
45109;Laerm;30447;48.742;8.972;2023-03-01T04:17:53;40.15;35.94;43.68;;
45109;Laerm;30447;48.742;8.972;2023-03-01T04:20:23;39.86;36.45;42.88;;
45109;Laerm;30447;48.742;8.972;2023-03-01T04:23:01;40.71;36.45;44.80;;
45109;Laerm;30447;48.742;8.972;2023-03-01T04:25:51;40.03;36.69;42.29;;
45109;Laerm;30447;48.742;8.972;2023-03-01T04:28:32;39.82;36.20;42.03;;
45109;Laerm;30447;48.742;8.972;2023-03-01T04:31:08;40.03;36.45;42.16;;
45109;Laerm;30447;48.742;8.972;2023-03-01T04:33:43;39.92;35.94;45.23;;
45109;Laerm;30447;48.742;8.972;2023-03-01T04:36:12;39.98;36.91;42.29;;
45109;Laerm;30447;48.742;8.972;2023-03-01T04:38:40;40.01;36.91;42.30;;
45109;Laerm;30447;48.742;8.972;2023-03-01T04:41:10;39.63;36.69;41.89;;
45109;Laerm;30447;48.742;8.972;2023-03-01T04:43:37;39.87;36.20;42.53;;
45109;Laerm;30447;48.742;8.972;2023-03-01T04:46:07;39.72;35.94;49.60;;
45109;Laerm;30447;48.742;8.972;2023-03-01T04:48:37;40.29;35.66;45.80;;
45109;Laerm;30447;48.742;8.972;2023-03-01T04:51:05;39.75;36.45;42.00;;
45109;Laerm;30447;48.742;8.972;2023-03-01T04:53:34;40.11;36.69;43.63;;
45109;Laerm;30447;48.742;8.972;2023-03-01T04:56:02;39.84;36.20;42.16;;
45109;Laerm;30447;48.742;8.972;2023-03-01T04:58:29;39.72;36.45;41.61;;
45109;Laerm;30447;48.742;8.972;2023-03-01T05:00:55;39.67;35.94;42.98;;
45109;Laerm;30447;48.742;8.972;2023-03-01T05:03:22;40.37;36.45;44.51;;
45109;Laerm;30447;48.742;8.972;2023-03-01T05:05:51;44.84;36.77;60.03;;
45109;Laerm;30447;48.742;8.972;2023-03-01T05:08:18;39.85;36.91;41.75;;
45109;Laerm;30447;48.742;8.972;2023-03-01T05:10:50;40.28;36.91;44.94;;
45109;Laerm;30447;48.742;8.972;2023-03-01T05:13:18;40.48;37.32;44.80;;
45109;Laerm;30447;48.742;8.972;2023-03-01T05:15:54;40.48;37.52;42.82;;
45109;Laerm;30447;48.742;8.972;2023-03-01T05:18:20;40.56;37.32;43.58;;
45109;Laerm;30447;48.742;8.972;2023-03-01T05:20:47;40.25;37.12;53.54;;
45109;Laerm;30447;48.742;8.972;2023-03-01T05:23:13;40.52;36.91;44.35;;
45109;Laerm;30447;48.742;8.972;2023-03-01T05:25:40;40.89;37.52;43.39;;
45109;Laerm;30447;48.742;8.972;2023-03-01T05:28:11;41.06;37.88;55.05;;
45109;Laerm;30447;48.742;8.972;2023-03-01T05:30:38;40.87;37.52;42.98;;
45109;Laerm;30447;48.742;8.972;2023-03-01T05:33:08;41.17;37.88;55.10;;
45109;Laerm;30447;48.742;8.972;2023-03-01T05:35:42;44.02;38.05;69.73;;
45109;Laerm;30447;48.742;8.972;2023-03-01T05:38:10;41.56;37.52;54.33;;
45109;Laerm;30447;48.742;8.972;2023-03-01T05:40:41;41.13;37.87;57.45;;
45109;Laerm;30447;48.742;8.972;2023-03-01T05:43:08;41.38;37.70;56.02;;
45109;Laerm;30447;48.742;8.972;2023-03-01T05:45:37;40.83;37.12;46.91;;
45109;Laerm;30447;48.742;8.972;2023-03-01T05:48:05;40.49;36.45;45.99;;
45109;Laerm;30447;48.742;8.972;2023-03-01T05:50:34;40.54;37.32;44.65;;
45109;Laerm;30447;48.742;8.972;2023-03-01T05:53:05;40.58;36.91;43.19;;
45109;Laerm;30447;48.742;8.972;2023-03-01T05:55:32;41.53;38.05;51.40;;
45109;Laerm;30447;48.742;8.972;2023-03-01T05:58:00;40.99;37.70;51.30;;
45109;Laerm;30447;48.742;8.972;2023-03-01T06:00:28;41.03;37.70;44.31;;
45109;Laerm;30447;48.742;8.972;2023-03-01T06:02:57;41.74;38.81;46.97;;
45109;Laerm;30447;48.742;8.972;2023-03-01T06:05:26;41.79;38.67;55.77;;
45109;Laerm;30447;48.742;8.972;2023-03-01T06:07:53;41.97;38.52;54.82;;
45109;Laerm;30447;48.742;8.972;2023-03-01T06:10:21;41.92;39.08;52.53;;
45109;Laerm;30447;48.742;8.972;2023-03-01T06:12:48;42.21;39.21;52.33;;
45109;Laerm;30447;48.742;8.972;2023-03-01T06:15:16;44.67;39.34;56.15;;
45109;Laerm;30447;48.742;8.972;2023-03-01T06:17:44;43.20;40.33;56.69;;
45109;Laerm;30447;48.742;8.972;2023-03-01T06:20:17;43.39;39.21;57.22;;
45109;Laerm;30447;48.742;8.972;2023-03-01T06:22:44;45.52;40.89;58.55;;
45109;Laerm;30447;48.742;8.972;2023-03-01T06:25:13;44.63;39.81;53.15;;
45109;Laerm;30447;48.742;8.972;2023-03-01T06:27:41;44.69;40.03;54.87;;
45109;Laerm;30447;48.742;8.972;2023-03-01T06:30:10;44.40;39.92;52.79;;
45109;Laerm;30447;48.742;8.972;2023-03-01T06:32:38;45.00;40.80;53.82;;
45109;Laerm;30447;48.742;8.972;2023-03-01T06:35:09;43.09;39.78;51.75;;
45109;Laerm;30447;48.742;8.972;2023-03-01T06:37:36;43.00;39.70;61.27;;
45109;Laerm;30447;48.742;8.972;2023-03-01T06:40:04;42.67;39.70;49.83;;
45109;Laerm;30447;48.742;8.972;2023-03-01T06:42:35;42.61;39.70;50.49;;
45109;Laerm;30447;48.742;8.972;2023-03-01T06:45:03;42.62;40.03;54.72;;
45109;Laerm;30447;48.742;8.972;2023-03-01T06:47:30;43.53;40.03;57.09;;
45109;Laerm;30447;48.742;8.972;2023-03-01T06:49:56;43.56;39.21;59.56;;
45109;Laerm;30447;48.742;8.972;2023-03-01T06:52:23;43.99;39.58;58.42;;
45109;Laerm;30447;48.742;8.972;2023-03-01T06:54:49;44.95;39.92;60.56;;
45109;Laerm;30447;48.742;8.972;2023-03-01T06:57:16;46.04;39.92;62.04;;
45109;Laerm;30447;48.742;8.972;2023-03-01T06:59:42;42.41;39.70;48.85;;
45109;Laerm;30447;48.742;8.972;2023-03-01T07:02:10;43.24;39.81;53.10;;
45109;Laerm;30447;48.742;8.972;2023-03-01T07:04:38;46.63;40.43;73.96;;
45109;Laerm;30447;48.742;8.972;2023-03-01T07:07:05;42.46;39.21;52.56;;
45109;Laerm;30447;48.742;8.972;2023-03-01T07:09:32;43.11;39.58;55.40;;
45109;Laerm;30447;48.742;8.972;2023-03-01T07:11:58;43.60;39.81;58.00;;
45109;Laerm;30447;48.742;8.972;2023-03-01T07:14:25;42.59;39.34;53.26;;
45109;Laerm;30447;48.742;8.972;2023-03-01T07:16:55;43.13;39.92;54.90;;
45109;Laerm;30447;48.742;8.972;2023-03-01T07:19:22;42.44;39.46;53.80;;
45109;Laerm;30447;48.742;8.972;2023-03-01T07:21:49;42.23;39.21;51.22;;
45109;Laerm;30447;48.742;8.972;2023-03-01T07:24:15;42.14;39.46;49.65;;
45109;Laerm;30447;48.742;8.972;2023-03-01T07:26:41;42.33;39.34;49.83;;
45109;Laerm;30447;48.742;8.972;2023-03-01T07:29:10;42.25;38.21;56.75;;
45109;Laerm;30447;48.742;8.972;2023-03-01T07:31:36;42.13;39.46;48.84;;
45109;Laerm;30447;48.742;8.972;2023-03-01T07:34:03;42.18;39.58;44.97;;
45109;Laerm;30447;48.742;8.972;2023-03-01T07:36:29;41.87;39.08;46.71;;
45109;Laerm;30447;48.742;8.972;2023-03-01T07:38:56;44.63;39.34;56.61;;
45109;Laerm;30447;48.742;8.972;2023-03-01T07:41:23;41.99;39.46;47.61;;
45109;Laerm;30447;48.742;8.972;2023-03-01T07:43:50;44.08;38.95;61.21;;
45109;Laerm;30447;48.742;8.972;2023-03-01T07:46:16;42.67;38.21;57.45;;
45109;Laerm;30447;48.742;8.972;2023-03-01T07:48:45;41.84;39.08;46.62;;
45109;Laerm;30447;48.742;8.972;2023-03-01T07:51:11;44.34;39.21;55.56;;
45109;Laerm;30447;48.742;8.972;2023-03-01T07:53:38;43.80;38.67;69.50;;
45109;Laerm;30447;48.742;8.972;2023-03-01T07:56:08;42.77;38.81;52.57;;
45109;Laerm;30447;48.742;8.972;2023-03-01T07:58:36;44.92;39.57;65.91;;
45109;Laerm;30447;48.742;8.972;2023-03-01T08:01:04;44.10;39.11;55.94;;
45109;Laerm;30447;48.742;8.972;2023-03-01T08:03:32;41.77;38.67;46.69;;
45109;Laerm;30447;48.742;8.972;2023-03-01T08:06:00;42.45;39.21;50.26;;
45109;Laerm;30447;48.742;8.972;2023-03-01T08:08:27;41.51;38.52;45.83;;
45109;Laerm;30447;48.742;8.972;2023-03-01T08:10:59;42.51;38.21;48.08;;
45109;Laerm;30447;48.742;8.972;2023-03-01T08:13:26;42.18;38.67;49.11;;
45109;Laerm;30447;48.742;8.972;2023-03-01T08:15:53;41.79;38.67;48.55;;
45109;Laerm;30447;48.742;8.972;2023-03-01T08:18:20;42.55;38.67;52.15;;
45109;Laerm;30447;48.742;8.972;2023-03-01T08:20:47;43.65;38.05;61.13;;
45109;Laerm;30447;48.742;8.972;2023-03-01T08:23:14;42.18;38.67;48.32;;
45109;Laerm;30447;48.742;8.972;2023-03-01T08:25:40;42.77;38.52;53.88;;
45109;Laerm;30447;48.742;8.972;2023-03-01T08:28:06;43.21;38.95;56.24;;
45109;Laerm;30447;48.742;8.972;2023-03-01T08:30:34;41.57;38.37;50.60;;
45109;Laerm;30447;48.742;8.972;2023-03-01T08:33:00;42.11;37.88;57.53;;
45109;Laerm;30447;48.742;8.972;2023-03-01T08:35:27;42.04;37.88;54.48;;
45109;Laerm;30447;48.742;8.972;2023-03-01T08:37:53;41.56;38.52;45.39;;
45109;Laerm;30447;48.742;8.972;2023-03-01T08:40:20;41.98;38.81;48.36;;
45109;Laerm;30447;48.742;8.972;2023-03-01T08:42:46;41.59;38.52;54.24;;
45109;Laerm;30447;48.742;8.972;2023-03-01T08:45:12;41.88;38.37;48.05;;
45109;Laerm;30447;48.742;8.972;2023-03-01T08:47:44;41.81;38.81;49.46;;
45109;Laerm;30447;48.742;8.972;2023-03-01T08:50:11;41.27;37.70;51.04;;
45109;Laerm;30447;48.742;8.972;2023-03-01T08:52:38;41.89;37.88;50.72;;
45109;Laerm;30447;48.742;8.972;2023-03-01T08:55:04;42.03;38.52;55.39;;
45109;Laerm;30447;48.742;8.972;2023-03-01T08:57:31;40.90;37.32;44.43;;
45109;Laerm;30447;48.742;8.972;2023-03-01T08:59:57;41.95;37.87;54.36;;
45109;Laerm;30447;48.742;8.972;2023-03-01T09:02:24;40.83;36.45;48.94;;
45109;Laerm;30447;48.742;8.972;2023-03-01T09:04:50;41.24;36.91;51.26;;
45109;Laerm;30447;48.742;8.972;2023-03-01T09:07:17;41.30;38.05;49.08;;
45109;Laerm;30447;48.742;8.972;2023-03-01T09:09:43;41.43;37.88;55.84;;
45109;Laerm;30447;48.742;8.972;2023-03-01T09:12:10;43.68;38.52;55.24;;
45109;Laerm;30447;48.742;8.972;2023-03-01T09:14:36;43.20;38.52;54.07;;
45109;Laerm;30447;48.742;8.972;2023-03-01T09:17:04;44.04;35.94;67.52;;
45109;Laerm;30447;48.742;8.972;2023-03-01T09:19:31;40.88;37.12;50.39;;
45109;Laerm;30447;48.742;8.972;2023-03-01T09:21:57;42.00;37.70;51.49;;
45109;Laerm;30447;48.742;8.972;2023-03-01T09:24:25;41.73;37.12;47.91;;
45109;Laerm;30447;48.742;8.972;2023-03-01T09:26:55;41.29;37.32;54.86;;
45109;Laerm;30447;48.742;8.972;2023-03-01T09:29:23;40.24;36.45;50.86;;
45109;Laerm;30447;48.742;8.972;2023-03-01T09:31:49;41.33;36.69;52.00;;
45109;Laerm;30447;48.742;8.972;2023-03-01T09:34:16;41.32;36.91;53.47;;
45109;Laerm;30447;48.742;8.972;2023-03-01T09:36:45;40.73;36.45;50.53;;
45109;Laerm;30447;48.742;8.972;2023-03-01T09:39:11;41.03;37.32;45.77;;
45109;Laerm;30447;48.742;8.972;2023-03-01T09:41:45;45.95;37.12;69.78;;
45109;Laerm;30447;48.742;8.972;2023-03-01T09:47:11;41.05;36.91;48.61;;
45109;Laerm;30447;48.742;8.972;2023-03-01T09:49:42;41.51;37.88;49.00;;
45109;Laerm;30447;48.742;8.972;2023-03-01T09:52:42;40.89;36.69;48.51;;
45109;Laerm;30447;48.742;8.972;2023-03-01T09:55:21;40.83;37.32;47.88;;
45109;Laerm;30447;48.742;8.972;2023-03-01T09:58:06;40.32;37.32;45.20;;
45109;Laerm;30447;48.742;8.972;2023-03-01T10:00:47;40.07;36.91;49.04;;
45109;Laerm;30447;48.742;8.972;2023-03-01T10:03:39;40.63;36.69;44.82;;
45109;Laerm;30447;48.742;8.972;2023-03-01T10:06:18;40.93;36.91;49.32;;
45109;Laerm;30447;48.742;8.972;2023-03-01T10:09:19;40.37;37.12;46.20;;
45109;Laerm;30447;48.742;8.972;2023-03-01T10:11:50;40.05;35.94;46.20;;
45109;Laerm;30447;48.742;8.972;2023-03-01T10:15:20;40.51;37.12;43.54;;
45109;Laerm;30447;48.742;8.972;2023-03-01T10:17:46;40.24;36.69;44.15;;
45109;Laerm;30447;48.742;8.972;2023-03-01T10:20:17;40.92;35.04;55.82;;
45109;Laerm;30447;48.742;8.972;2023-03-01T10:22:44;40.49;35.94;54.91;;
45109;Laerm;30447;48.742;8.972;2023-03-01T10:28:05;40.45;36.45;50.55;;
45109;Laerm;30447;48.742;8.972;2023-03-01T10:30:38;43.04;36.77;64.74;;
45109;Laerm;30447;48.742;8.972;2023-03-01T10:33:27;48.29;37.52;65.30;;
45109;Laerm;30447;48.742;8.972;2023-03-01T10:35:55;41.07;36.20;53.05;;
45109;Laerm;30447;48.742;8.972;2023-03-01T10:38:22;41.38;37.12;50.97;;
45109;Laerm;30447;48.742;8.972;2023-03-01T10:43:21;40.01;37.12;48.02;;
45109;Laerm;30447;48.742;8.972;2023-03-01T10:45:48;40.49;36.45;53.96;;
45109;Laerm;30447;48.742;8.972;2023-03-01T10:48:19;40.47;36.45;49.19;;
45109;Laerm;30447;48.742;8.972;2023-03-01T10:51:12;40.10;36.91;50.29;;
45109;Laerm;30447;48.742;8.972;2023-03-01T10:53:40;39.91;35.94;43.09;;
45109;Laerm;30447;48.742;8.972;2023-03-01T10:56:10;41.34;36.45;51.01;;
45109;Laerm;30447;48.742;8.972;2023-03-01T10:58:39;40.56;36.45;50.02;;
45109;Laerm;30447;48.742;8.972;2023-03-01T11:01:28;40.23;35.36;50.03;;
45109;Laerm;30447;48.742;8.972;2023-03-01T11:06:31;40.56;36.45;47.26;;
45109;Laerm;30447;48.742;8.972;2023-03-01T11:09:14;40.53;37.12;44.51;;
45109;Laerm;30447;48.742;8.972;2023-03-01T11:11:41;40.52;37.32;49.62;;
45109;Laerm;30447;48.742;8.972;2023-03-01T11:14:27;40.45;35.94;54.07;;
45109;Laerm;30447;48.742;8.972;2023-03-01T11:17:26;41.53;36.20;51.10;;
45109;Laerm;30447;48.742;8.972;2023-03-01T11:25:14;45.64;37.12;65.31;;
45109;Laerm;30447;48.742;8.972;2023-03-01T11:27:44;41.03;35.94;58.07;;
45109;Laerm;30447;48.742;8.972;2023-03-01T11:36:01;41.05;36.77;49.84;;
45109;Laerm;30447;48.742;8.972;2023-03-01T11:38:34;40.20;36.45;50.26;;
45109;Laerm;30447;48.742;8.972;2023-03-01T11:41:07;41.86;36.45;54.53;;
45109;Laerm;30447;48.742;8.972;2023-03-01T11:46:28;59.12;37.12;78.34;;
45109;Laerm;30447;48.742;8.972;2023-03-01T11:49:40;39.87;35.36;49.43;;
45109;Laerm;30447;48.742;8.972;2023-03-01T11:52:35;40.38;37.12;48.10;;
45109;Laerm;30447;48.742;8.972;2023-03-01T11:55:25;40.60;35.36;50.38;;
45109;Laerm;30447;48.742;8.972;2023-03-01T11:58:13;40.87;36.69;51.10;;
45109;Laerm;30447;48.742;8.972;2023-03-01T12:20:51;42.23;37.88;52.27;;
45109;Laerm;30447;48.742;8.972;2023-03-01T12:29:22;41.74;37.32;48.25;;
45109;Laerm;30447;48.742;8.972;2023-03-01T12:31:57;41.28;37.70;48.36;;
45109;Laerm;30447;48.742;8.972;2023-03-01T12:34:42;41.05;37.32;51.51;;
45109;Laerm;30447;48.742;8.972;2023-03-01T12:50:53;41.67;36.20;54.88;;
45109;Laerm;30447;48.742;8.972;2023-03-01T12:53:29;41.57;37.70;53.78;;
45109;Laerm;30447;48.742;8.972;2023-03-01T12:56:23;41.26;37.53;48.52;;
45109;Laerm;30447;48.742;8.972;2023-03-01T13:02:20;45.43;38.52;60.82;;
45109;Laerm;30447;48.742;8.972;2023-03-01T13:10:55;41.63;37.32;47.02;;
45109;Laerm;30447;48.742;8.972;2023-03-01T13:13:23;42.62;38.37;49.46;;
45109;Laerm;30447;48.742;8.972;2023-03-01T13:15:50;41.92;38.81;46.95;;
45109;Laerm;30447;48.742;8.972;2023-03-01T13:20:51;42.57;38.37;56.10;;
45109;Laerm;30447;48.742;8.972;2023-03-01T13:28:51;41.10;37.12;51.84;;
45109;Laerm;30447;48.742;8.972;2023-03-01T13:33:51;41.07;37.88;54.26;;
45109;Laerm;30447;48.742;8.972;2023-03-01T13:49:51;42.02;38.52;54.00;;
45109;Laerm;30447;48.742;8.972;2023-03-01T13:54:53;42.44;39.46;50.64;;
45109;Laerm;30447;48.742;8.972;2023-03-01T13:57:26;41.70;38.21;51.09;;
45109;Laerm;30447;48.742;8.972;2023-03-01T13:59:55;41.41;36.69;51.81;;
45109;Laerm;30447;48.742;8.972;2023-03-01T14:02:21;43.53;38.81;61.19;;
45109;Laerm;30447;48.742;8.972;2023-03-01T14:04:59;42.84;38.95;56.34;;
45109;Laerm;30447;48.742;8.972;2023-03-01T14:07:27;42.84;38.52;58.01;;
45109;Laerm;30447;48.742;8.972;2023-03-01T14:10:03;42.84;39.34;53.16;;
45109;Laerm;30447;48.742;8.972;2023-03-01T14:16:04;44.75;38.81;65.40;;
45109;Laerm;30447;48.742;8.972;2023-03-01T14:19:05;43.13;39.34;60.26;;
45109;Laerm;30447;48.742;8.972;2023-03-01T14:21:34;44.12;39.34;62.79;;
45109;Laerm;30447;48.742;8.972;2023-03-01T14:24:03;43.20;38.95;60.34;;
45109;Laerm;30447;48.742;8.972;2023-03-01T14:26:31;43.37;39.34;49.47;;
45109;Laerm;30447;48.742;8.972;2023-03-01T14:29:01;43.65;39.08;61.60;;
45109;Laerm;30447;48.742;8.972;2023-03-01T14:33:55;42.99;38.37;55.99;;
45109;Laerm;30447;48.742;8.972;2023-03-01T14:36:32;42.28;38.67;51.55;;
45109;Laerm;30447;48.742;8.972;2023-03-01T14:38:59;41.59;37.52;51.28;;
45109;Laerm;30447;48.742;8.972;2023-03-01T14:41:34;42.04;37.52;50.07;;
45109;Laerm;30447;48.742;8.972;2023-03-01T14:44:16;41.96;38.21;48.92;;
45109;Laerm;30447;48.742;8.972;2023-03-01T14:46:45;41.50;36.91;46.43;;
45109;Laerm;30447;48.742;8.972;2023-03-01T14:49:19;40.26;36.91;45.42;;
45109;Laerm;30447;48.742;8.972;2023-03-01T14:52:00;40.03;36.45;47.48;;
45109;Laerm;30447;48.742;8.972;2023-03-01T14:57:02;41.54;38.05;48.34;;
45109;Laerm;30447;48.742;8.972;2023-03-01T14:59:28;41.73;38.37;48.90;;
45109;Laerm;30447;48.742;8.972;2023-03-01T15:01:57;41.74;38.37;51.78;;
45109;Laerm;30447;48.742;8.972;2023-03-01T15:04:27;42.48;37.52;58.68;;
45109;Laerm;30447;48.742;8.972;2023-03-01T15:06:57;40.91;37.70;48.51;;
45109;Laerm;30447;48.742;8.972;2023-03-01T15:09:34;40.78;36.45;44.83;;
45109;Laerm;30447;48.742;8.972;2023-03-01T15:14:57;40.86;36.45;54.69;;
45109;Laerm;30447;48.742;8.972;2023-03-01T15:20:00;40.32;36.20;54.19;;
45109;Laerm;30447;48.742;8.972;2023-03-01T15:22:27;42.20;36.45;56.14;;
45109;Laerm;30447;48.742;8.972;2023-03-01T15:24:54;43.21;37.70;63.01;;
45109;Laerm;30447;48.742;8.972;2023-03-01T15:27:24;40.74;36.45;47.30;;
45109;Laerm;30447;48.742;8.972;2023-03-01T15:29:59;40.11;35.36;43.14;;
45109;Laerm;30447;48.742;8.972;2023-03-01T15:32:30;40.95;36.69;48.69;;
45109;Laerm;30447;48.742;8.972;2023-03-01T15:34:59;41.67;35.04;54.62;;
45109;Laerm;30447;48.742;8.972;2023-03-01T15:37:40;41.14;36.69;53.30;;
45109;Laerm;30447;48.742;8.972;2023-03-01T15:40:23;41.37;37.12;52.48;;
45109;Laerm;30447;48.742;8.972;2023-03-01T15:43:03;43.75;37.12;63.97;;
45109;Laerm;30447;48.742;8.972;2023-03-01T15:45:32;40.77;36.56;54.53;;
45109;Laerm;30447;48.742;8.972;2023-03-01T15:48:13;40.42;36.20;45.11;;
45109;Laerm;30447;48.742;8.972;2023-03-01T15:50:41;41.02;36.91;51.92;;
45109;Laerm;30447;48.742;8.972;2023-03-01T15:53:14;41.26;36.91;48.78;;
45109;Laerm;30447;48.742;8.972;2023-03-01T15:55:41;41.68;36.91;54.38;;
45109;Laerm;30447;48.742;8.972;2023-03-01T15:58:20;41.62;38.05;52.47;;
45109;Laerm;30447;48.742;8.972;2023-03-01T16:00:49;40.78;37.70;46.45;;
45109;Laerm;30447;48.742;8.972;2023-03-01T16:03:17;40.67;37.70;44.07;;
45109;Laerm;30447;48.742;8.972;2023-03-01T16:05:49;40.87;37.12;46.33;;
45109;Laerm;30447;48.742;8.972;2023-03-01T16:08:17;41.69;36.45;59.76;;